Time;durP1;ratioP1;P1;durP2;ratioP2;P2;SDS_P1;SDS_P2;PMS_P1;PMS_P2;Temp;Humidity;BMP_temperature;BMP_pressure;BME280_temperature;BME280_humidity;BME280_pressure;Samples;Min_cycle;Max_cycle;Signal;HPM_P1;HPM_P2
2023/05/14 00:04:01;;;;;;;38.75;29.73;;;12.70;99.90;;;;;;4903348;29;40592;-79
2023/05/14 00:06:28;;;;;;;43.17;31.45;;;12.70;99.90;;;;;;4882656;29;39526;-80
2023/05/14 00:09:36;;;;;;;43.10;30.90;;;12.60;99.90;;;;;;4902913;29;38668;-81
2023/05/14 00:12:02;;;;;;;40.22;29.95;;;12.60;99.90;;;;;;4890845;29;49882;-80
2023/05/14 00:14:43;;;;;;;41.95;31.02;;;12.60;99.90;;;;;;4901039;29;39577;-80
2023/05/14 00:17:14;;;;;;;41.25;29.77;;;12.60;99.90;;;;;;5084655;23;38959;-80
2023/05/14 00:22:16;;;;;;;38.20;29.63;;;12.50;99.90;;;;;;5447527;23;20038;-81
2023/05/14 00:27:18;;;;;;;43.47;28.85;;;12.50;99.90;;;;;;5341264;23;20045;-80
2023/05/14 00:32:32;;;;;;;42.13;28.83;;;12.50;99.90;;;;;;4986730;23;19927;-81
2023/05/14 00:35:08;;;;;;;34.17;27.20;;;12.50;99.90;;;;;;4867498;29;39341;-80
2023/05/14 00:57:13;;;;;;;37.40;25.30;;;12.30;99.90;;;;;;4920167;23;20044;-82
2023/05/14 01:21:34;;;;;;;39.70;25.38;;;12.10;99.90;;;;;;5995171;23;20030;31
2023/05/14 01:54:14;;;;;;;38.90;25.20;;;11.90;99.90;;;;;;5569269;23;20046;31
2023/05/14 02:10:34;;;;;;;38.77;26.97;;;11.70;99.90;;;;;;5779081;23;20024;31
2023/05/14 02:13:23;;;;;;;42.67;27.38;;;11.60;99.90;;;;;;5783276;23;48125;-82
2023/05/14 02:19:38;;;;;;;43.05;29.15;;;11.60;99.90;;;;;;4691082;23;20061;-83
2023/05/14 02:32:44;;;;;;;48.95;29.65;;;11.60;99.90;;;;;;4833534;23;19919;-82
2023/05/14 02:43:20;;;;;;;46.30;31.08;;;11.50;99.90;;;;;;5547603;23;20067;-82
2023/05/14 03:21:17;;;;;;;48.65;31.60;;;11.30;99.90;;;;;;5466077;23;20043;-82
2023/05/14 03:37:08;;;;;;;48.30;32.13;;;11.20;99.90;;;;;;5441984;24;20200;-83
2023/05/14 03:39:54;;;;;;;50.90;30.98;;;11.30;99.90;;;;;;4894632;29;50245;-82
2023/05/14 03:49:01;;;;;;;44.70;30.38;;;11.30;99.90;;;;;;5192357;23;20041;-83
2023/05/14 03:51:32;;;;;;;54.47;34.47;;;11.30;99.90;;;;;;4887013;29;37932;-83
2023/05/14 04:19:56;;;;;;;44.13;30.38;;;11.30;99.90;;;;;;5346039;23;20087;-85
2023/05/14 04:22:52;;;;;;;45.30;30.30;;;11.20;99.90;;;;;;4881304;29;49360;-83
2023/05/14 04:28:04;;;;;;;49.38;30.75;;;11.30;99.90;;;;;;5397488;23;20062;-85
2023/05/14 05:18:46;;;;;;;38.47;24.27;;;11.90;99.90;;;;;;4675497;23;20308;-85
2023/05/14 07:50:11;;;;;;;20.05;13.88;;;15.40;99.90;;;;;;5095446;23;20056;-84
2023/05/14 07:52:38;;;;;;;21.27;13.90;;;15.80;99.90;;;;;;4900292;29;39719;-86
2023/05/14 07:55:04;;;;;;;19.20;13.38;;;16.10;99.90;;;;;;4877695;29;37397;-86
2023/05/14 07:57:31;;;;;;;18.30;13.07;;;16.30;99.90;;;;;;4871057;29;47639;-85
2023/05/14 07:59:57;;;;;;;17.30;12.68;;;16.50;99.90;;;;;;4886761;29;36628;-87
2023/05/14 08:02:23;;;;;;;22.42;12.73;;;16.40;99.90;;;;;;4866143;29;37176;-88
2023/05/14 08:04:49;;;;;;;19.92;12.40;;;16.50;99.90;;;;;;4878343;29;37414;-88
2023/05/14 08:07:15;;;;;;;18.58;12.50;;;16.70;99.90;;;;;;4877856;29;38405;-90
2023/05/14 08:09:41;;;;;;;15.30;11.48;;;16.90;99.90;;;;;;4867076;29;37572;-88
2023/05/14 08:12:07;;;;;;;17.42;11.63;;;17.10;99.90;;;;;;4862948;29;37808;-87
2023/05/14 08:14:33;;;;;;;19.13;10.40;;;17.20;99.90;;;;;;4873622;29;37408;-87
2023/05/14 08:17:00;;;;;;;13.32;9.48;;;17.40;99.90;;;;;;4875369;29;37088;-87
2023/05/14 08:19:26;;;;;;;16.48;9.07;;;17.20;99.90;;;;;;4868898;29;36773;-85
2023/05/14 08:21:52;;;;;;;19.50;9.27;;;17.30;99.90;;;;;;4866215;29;38839;-84
2023/05/14 08:24:19;;;;;;;16.77;9.95;;;17.10;99.90;;;;;;4864885;29;38539;-86
2023/05/14 08:26:46;;;;;;;21.55;10.73;;;17.30;99.90;;;;;;4868869;29;38025;-85
2023/05/14 08:29:13;;;;;;;17.30;9.52;;;17.60;99.90;;;;;;4865229;29;35521;-86
2023/05/14 08:31:39;;;;;;;16.85;8.75;;;17.70;99.90;;;;;;4865504;29;39990;-86
2023/05/14 08:34:06;;;;;;;19.70;9.50;;;17.60;99.90;;;;;;4863472;29;38746;-86
2023/05/14 08:36:32;;;;;;;19.13;9.60;;;17.70;99.90;;;;;;4868580;29;37235;-86
2023/05/14 08:38:58;;;;;;;19.30;8.88;;;17.70;99.90;;;;;;4886818;29;36133;-85
2023/05/14 08:41:24;;;;;;;14.05;7.57;;;17.60;99.90;;;;;;4861372;29;37727;-86
2023/05/14 08:43:53;;;;;;;15.85;7.75;;;17.90;99.90;;;;;;4864979;29;38011;-87
2023/05/14 08:46:23;;;;;;;13.95;7.15;;;17.80;99.90;;;;;;4861904;29;36071;-85
2023/05/14 08:48:56;;;;;;;15.90;7.60;;;18.30;99.90;;;;;;4855805;29;38025;-85
2023/05/14 08:51:23;;;;;;;12.13;7.30;;;18.40;99.90;;;;;;4879243;29;37530;-84
2023/05/14 08:53:50;;;;;;;16.65;6.90;;;18.40;99.90;;;;;;4866796;29;38608;-85
2023/05/14 08:56:18;;;;;;;11.07;5.80;;;18.70;99.90;;;;;;4880514;29;37330;-83
2023/05/14 08:58:44;;;;;;;13.90;6.45;;;18.80;99.90;;;;;;4866321;29;38013;-86
2023/05/14 09:01:10;;;;;;;15.23;6.35;;;18.60;99.90;;;;;;4861454;29;38617;-86
2023/05/14 09:03:37;;;;;;;10.32;5.45;;;18.80;99.90;;;;;;4866801;29;37053;-86
2023/05/14 09:06:07;;;;;;;12.95;6.28;;;18.80;99.90;;;;;;4861018;29;38243;-86
2023/05/14 09:08:35;;;;;;;13.27;6.60;;;19.30;99.90;;;;;;4870876;29;36480;-86
2023/05/14 09:11:01;;;;;;;10.98;5.40;;;19.50;99.90;;;;;;4871896;29;37706;-86
2023/05/14 09:13:27;;;;;;;13.52;5.28;;;19.60;99.90;;;;;;4871973;29;46892;-85
2023/05/14 09:15:54;;;;;;;13.00;5.07;;;19.50;99.90;;;;;;4869652;29;37697;-86
2023/05/14 09:18:20;;;;;;;11.82;5.13;;;19.70;99.90;;;;;;4861627;29;37599;-86
2023/05/14 09:20:46;;;;;;;12.15;4.72;;;20.00;99.90;;;;;;4868124;29;38098;-86
2023/05/14 09:23:13;;;;;;;13.27;4.72;;;19.90;99.90;;;;;;4866987;29;38403;-87
2023/05/14 09:25:39;;;;;;;11.15;4.65;;;19.70;99.90;;;;;;4859476;29;40810;-86
2023/05/14 09:28:07;;;;;;;13.80;4.90;;;19.60;99.90;;;;;;4861904;29;37527;-87
2023/05/14 09:30:33;;;;;;;13.50;5.10;;;19.60;99.90;;;;;;4865329;29;38683;-86
2023/05/14 09:33:00;;;;;;;15.20;5.05;;;19.80;99.90;;;;;;4888827;29;39443;-86
2023/05/14 09:35:27;;;;;;;10.32;5.05;;;20.20;99.90;;;;;;4850747;29;37322;-85
2023/05/14 09:37:54;;;;;;;17.48;6.47;;;20.30;99.90;;;;;;4865672;29;37422;-85
2023/05/14 09:40:22;;;;;;;9.43;4.70;;;20.20;99.90;;;;;;4877934;29;37699;-85
2023/05/14 09:42:48;;;;;;;12.20;4.97;;;20.50;99.90;;;;;;4859418;29;39190;-84
2023/05/14 09:45:15;;;;;;;10.52;4.32;;;20.40;99.90;;;;;;4870520;29;38081;-85
2023/05/14 09:47:43;;;;;;;14.50;4.93;;;20.70;99.90;;;;;;4872691;29;36803;-84
2023/05/14 09:50:10;;;;;;;10.60;5.07;;;20.90;99.90;;;;;;4869967;29;37974;-84
2023/05/14 09:52:38;;;;;;;13.18;5.10;;;20.80;99.90;;;;;;4865957;29;37652;-86
2023/05/14 09:55:05;;;;;;;10.95;4.70;;;20.40;99.90;;;;;;4871540;29;38274;-84
2023/05/14 09:57:32;;;;;;;13.02;4.50;;;20.30;99.90;;;;;;4869580;29;48734;-85
2023/05/14 09:59:58;;;;;;;12.70;4.45;;;20.70;99.90;;;;;;4886999;29;38107;-85
2023/05/14 10:02:28;;;;;;;9.75;4.57;;;20.80;99.90;;;;;;4874580;29;37438;-85
2023/05/14 10:04:59;;;;;;;9.45;4.20;;;21.00;99.90;;;;;;4867647;29;36733;-83
2023/05/14 10:07:32;;;;;;;10.77;5.00;;;21.00;99.90;;;;;;4863875;29;36145;-84
2023/05/14 10:10:02;;;;;;;10.98;5.38;;;21.20;99.90;;;;;;4871201;29;38972;-83
2023/05/14 10:12:38;;;;;;;16.95;5.75;;;21.30;99.90;;;;;;4867308;29;38500;-85
2023/05/14 10:15:13;;;;;;;12.25;5.07;;;21.20;99.90;;;;;;4868482;29;37161;-83
2023/05/14 10:17:44;;;;;;;12.20;5.53;;;21.30;99.90;;;;;;4872724;29;48446;-83
2023/05/14 10:20:14;;;;;;;12.27;4.05;;;21.50;99.90;;;;;;4870714;29;39288;-84
2023/05/14 10:22:40;;;;;;;17.75;5.50;;;21.60;99.90;;;;;;4874889;29;37574;-84
2023/05/14 10:25:07;;;;;;;9.98;5.00;;;21.40;99.90;;;;;;4872554;29;38728;-83
2023/05/14 10:27:33;;;;;;;11.40;6.03;;;21.50;99.90;;;;;;4869810;29;36336;-84
2023/05/14 10:30:04;;;;;;;13.32;4.55;;;21.20;99.90;;;;;;4867066;29;38388;-86
2023/05/14 10:32:31;;;;;;;14.23;4.40;;;21.40;99.90;;;;;;4878078;29;37259;-85
2023/05/14 10:35:00;;;;;;;12.75;5.00;;;21.70;99.90;;;;;;4867760;29;38226;-84
2023/05/14 10:37:29;;;;;;;16.13;5.45;;;21.40;99.90;;;;;;4863403;29;37114;-83
2023/05/14 10:40:01;;;;;;;10.85;4.63;;;21.80;99.90;;;;;;4863095;29;37904;-83
2023/05/14 10:42:36;;;;;;;12.18;4.45;;;21.70;99.90;;;;;;4859978;29;37348;-81
2023/05/14 10:45:13;;;;;;;9.93;4.45;;;21.50;99.90;;;;;;4863351;29;36989;-85
2023/05/14 10:47:42;;;;;;;9.73;4.80;;;21.90;99.90;;;;;;4878446;29;47429;-84
2023/05/14 10:50:10;;;;;;;11.95;4.20;;;22.00;99.90;;;;;;4875221;29;38075;-84
2023/05/14 10:52:36;;;;;;;9.52;4.03;;;22.10;99.90;;;;;;4858472;29;38172;-85
2023/05/14 10:55:07;;;;;;;10.00;4.43;;;22.30;99.90;;;;;;4862183;29;37024;-85
2023/05/14 10:57:36;;;;;;;8.10;3.92;;;22.60;99.90;;;;;;4869328;29;47017;-85
2023/05/14 11:00:06;;;;;;;10.50;3.60;;;22.80;99.90;;;;;;4883515;29;39838;-83
2023/05/14 11:02:35;;;;;;;10.52;4.03;;;22.80;99.90;;;;;;4868733;29;37599;-82
2023/05/14 11:05:04;;;;;;;10.23;3.90;;;22.80;99.90;;;;;;4871808;29;37203;-83
2023/05/14 11:07:33;;;;;;;10.35;4.80;;;22.70;99.90;;;;;;4867206;29;47259;-83
2023/05/14 11:10:03;;;;;;;7.97;3.75;;;22.40;99.90;;;;;;4881768;29;37918;-83
2023/05/14 11:12:30;;;;;;;12.15;4.20;;;22.60;99.90;;;;;;4867440;29;37559;-83
2023/05/14 11:14:58;;;;;;;11.35;4.45;;;22.80;99.90;;;;;;4864488;29;37555;-82
2023/05/14 11:17:26;;;;;;;8.88;4.00;;;22.40;99.90;;;;;;4871115;29;36943;-82
2023/05/14 11:19:52;;;;;;;7.72;4.00;;;21.90;99.90;;;;;;4867334;29;39768;-84
2023/05/14 11:22:18;;;;;;;10.80;4.20;;;22.30;99.90;;;;;;4868707;29;38086;-89
2023/05/14 11:24:44;;;;;;;12.07;4.07;;;22.40;99.90;;;;;;4870864;29;37352;-84
2023/05/14 11:27:11;;;;;;;10.60;4.85;;;22.20;99.90;;;;;;4866912;29;38133;-81
2023/05/14 11:29:37;;;;;;;12.02;4.22;;;21.60;99.90;;;;;;4867102;29;37791;-82
2023/05/14 11:32:06;;;;;;;12.95;5.18;;;21.70;99.90;;;;;;4862790;29;37305;-82
2023/05/14 11:34:33;;;;;;;12.98;4.63;;;21.60;99.90;;;;;;4862968;29;37733;-81
2023/05/14 11:37:05;;;;;;;11.23;4.97;;;21.60;99.90;;;;;;4883177;29;38416;-80
2023/05/14 11:39:32;;;;;;;13.60;4.22;;;21.40;99.90;;;;;;4868503;29;47325;-80
2023/05/14 11:42:01;;;;;;;9.93;4.88;;;21.50;99.90;;;;;;4863746;29;38614;-80
2023/05/14 11:44:27;;;;;;;14.55;4.95;;;21.90;99.90;;;;;;4861484;29;47950;-79
2023/05/14 11:46:58;;;;;;;11.70;5.05;;;22.30;99.90;;;;;;4864696;29;36150;-80
2023/05/14 11:49:24;;;;;;;8.50;4.35;;;22.30;99.90;;;;;;4862077;29;37993;-79
2023/05/14 11:51:57;;;;;;;11.07;3.95;;;22.70;99.90;;;;;;4864655;29;39020;-81
2023/05/14 11:54:25;;;;;;;9.30;4.63;;;22.90;99.90;;;;;;4863717;29;37148;-79
2023/05/14 11:56:53;;;;;;;8.85;4.03;;;22.80;99.90;;;;;;4863792;29;36092;-77
2023/05/14 11:59:19;;;;;;;10.77;4.32;;;23.00;99.90;;;;;;4860800;29;37426;-77
2023/05/14 12:01:45;;;;;;;8.23;4.50;;;22.80;99.90;;;;;;4870084;29;37261;-77
2023/05/14 12:04:13;;;;;;;5.75;3.33;;;22.60;99.90;;;;;;4870720;29;37963;-78
2023/05/14 12:06:39;;;;;;;10.38;4.25;;;22.80;99.90;;;;;;4874577;29;37428;-80
2023/05/14 12:09:06;;;;;;;10.77;3.83;;;22.80;99.90;;;;;;4860817;29;39213;-81
2023/05/14 12:11:34;;;;;;;10.40;4.50;;;22.90;99.90;;;;;;4883436;29;37729;-81
2023/05/14 12:14:00;;;;;;;11.88;4.40;;;23.20;99.90;;;;;;4866148;29;39730;-79
2023/05/14 12:16:31;;;;;;;11.18;4.57;;;23.00;99.90;;;;;;4870169;29;37929;-79
2023/05/14 12:19:00;;;;;;;9.88;4.30;;;23.10;99.90;;;;;;4866218;29;38895;-79
2023/05/14 12:21:27;;;;;;;12.07;4.15;;;23.50;99.90;;;;;;4873573;29;47649;-79
2023/05/14 12:24:00;;;;;;;8.32;4.38;;;23.50;99.90;;;;;;4868368;29;39377;-80
2023/05/14 12:26:27;;;;;;;11.52;4.75;;;23.70;99.90;;;;;;4867043;29;37107;-80
2023/05/14 12:29:00;;;;;;;7.82;4.35;;;23.30;99.90;;;;;;4870934;29;38312;-80
2023/05/14 12:31:30;;;;;;;9.77;4.53;;;22.70;99.90;;;;;;4862325;29;37719;-80
2023/05/14 12:33:56;;;;;;;9.98;4.15;;;22.70;99.90;;;;;;4857910;29;39566;-80
2023/05/14 12:36:23;;;;;;;10.13;4.47;;;22.90;99.90;;;;;;4865571;29;33629;-81
2023/05/14 12:38:49;;;;;;;11.10;4.57;;;22.90;99.90;;;;;;4872557;29;38406;-80
2023/05/14 12:41:16;;;;;;;8.10;4.35;;;23.00;99.90;;;;;;4863502;29;40060;-81
2023/05/14 12:43:43;;;;;;;9.10;4.28;;;23.00;99.90;;;;;;4866193;29;38442;-80
2023/05/14 12:46:09;;;;;;;10.80;4.80;;;22.80;99.90;;;;;;4855918;29;36018;-80
2023/05/14 12:48:37;;;;;;;8.70;4.45;;;22.60;99.90;;;;;;4863392;29;38547;-79
2023/05/14 12:51:04;;;;;;;13.43;4.57;;;22.70;99.90;;;;;;4863883;29;37285;-80
2023/05/14 12:53:30;;;;;;;10.05;4.07;;;22.40;99.90;;;;;;4867502;29;37530;-80
2023/05/14 12:55:56;;;;;;;7.88;4.10;;;22.60;99.90;;;;;;4860314;29;38707;-80
2023/05/14 12:58:22;;;;;;;9.38;4.00;;;22.60;99.90;;;;;;4853572;29;37663;-81
2023/05/14 13:00:48;;;;;;;10.98;4.00;;;22.70;99.90;;;;;;4859764;29;36316;-80
2023/05/14 13:03:15;;;;;;;9.38;4.47;;;22.80;99.90;;;;;;4859496;29;36583;-79
2023/05/14 13:05:41;;;;;;;9.70;4.68;;;22.70;99.90;;;;;;4872044;29;36521;-80
2023/05/14 13:08:09;;;;;;;7.13;3.42;;;22.50;99.90;;;;;;4874212;29;37667;-78
2023/05/14 13:10:35;;;;;;;10.43;4.15;;;22.40;99.90;;;;;;4863483;29;38587;-79
2023/05/14 13:13:01;;;;;;;8.35;4.10;;;22.00;99.90;;;;;;4851198;29;36974;-80
2023/05/14 13:15:28;;;;;;;10.05;4.18;;;22.10;99.90;;;;;;4845131;29;47922;-80
2023/05/14 13:17:54;;;;;;;12.20;4.35;;;22.10;99.90;;;;;;4859653;29;38701;-80
2023/05/14 13:20:20;;;;;;;10.32;4.45;;;22.00;99.90;;;;;;4857850;29;38567;-79
2023/05/14 13:22:46;;;;;;;10.73;3.88;;;22.10;99.90;;;;;;4869158;29;36980;-80
2023/05/14 13:25:12;;;;;;;9.50;4.10;;;21.90;99.90;;;;;;4875528;29;36013;-80
2023/05/14 13:27:38;;;;;;;11.00;3.78;;;21.30;99.90;;;;;;4859694;29;39581;-78
2023/05/14 13:30:05;;;;;;;11.00;4.45;;;21.40;99.90;;;;;;4861833;29;38899;-81
2023/05/14 13:32:31;;;;;;;11.77;4.95;;;21.80;99.90;;;;;;4876871;29;36929;-80
2023/05/14 13:34:57;;;;;;;10.95;4.10;;;21.70;99.90;;;;;;4858997;29;37168;-79
2023/05/14 13:37:24;;;;;;;11.77;5.30;;;21.70;99.90;;;;;;4874483;29;40053;-80
2023/05/14 13:39:50;;;;;;;11.65;4.65;;;21.50;99.90;;;;;;4884097;29;37143;-80
2023/05/14 13:42:16;;;;;;;10.07;4.25;;;21.30;99.90;;;;;;4863399;29;37926;-80
2023/05/14 13:44:42;;;;;;;8.23;4.45;;;21.20;99.90;;;;;;4871476;29;36884;-81
2023/05/14 13:47:09;;;;;;;16.23;5.55;;;21.00;99.90;;;;;;4867676;29;38349;-81
2023/05/14 13:49:35;;;;;;;10.95;4.78;;;20.20;99.90;;;;;;4867468;29;37565;-80
2023/05/14 13:52:01;;;;;;;10.82;4.65;;;19.90;99.90;;;;;;4883552;29;38194;-80
2023/05/14 13:54:27;;;;;;;10.55;4.97;;;19.70;99.90;;;;;;4868748;29;47238;-81
2023/05/14 13:56:54;;;;;;;10.20;4.65;;;19.60;99.90;;;;;;4865626;29;39403;-83
2023/05/14 13:59:20;;;;;;;11.55;4.70;;;19.70;99.90;;;;;;4868246;29;39525;-83
2023/05/14 14:01:48;;;;;;;10.15;4.88;;;19.50;99.90;;;;;;4868499;29;37219;-84
2023/05/14 14:04:15;;;;;;;12.55;5.07;;;19.10;99.90;;;;;;4869674;29;36529;-82
2023/05/14 14:06:41;;;;;;;13.57;5.15;;;19.10;99.90;;;;;;4868664;29;37861;-85
2023/05/14 14:09:08;;;;;;;11.25;4.32;;;19.10;99.90;;;;;;4869902;29;37405;-81
2023/05/14 14:11:34;;;;;;;10.13;5.53;;;19.30;99.90;;;;;;4869512;29;36983;-82
2023/05/14 14:14:00;;;;;;;10.30;4.80;;;19.50;99.90;;;;;;4862894;29;37481;-81
2023/05/14 14:16:27;;;;;;;15.48;5.20;;;19.40;99.90;;;;;;4865667;29;46956;-82
2023/05/14 14:18:53;;;;;;;11.20;4.80;;;19.60;99.90;;;;;;4865582;29;38116;-80
2023/05/14 14:21:19;;;;;;;10.25;4.85;;;19.30;99.90;;;;;;4863141;29;37815;-80
2023/05/14 14:23:46;;;;;;;11.18;4.80;;;19.40;99.90;;;;;;4863624;29;36186;-81
2023/05/14 14:26:12;;;;;;;13.68;4.63;;;19.20;99.90;;;;;;4868293;29;40155;-83
2023/05/14 14:28:39;;;;;;;9.65;4.63;;;19.30;99.90;;;;;;4873776;29;37019;-82
2023/05/14 14:31:05;;;;;;;10.90;4.20;;;18.90;99.90;;;;;;4865220;29;38390;-83
2023/05/14 14:33:31;;;;;;;11.23;4.57;;;19.00;99.90;;;;;;4862351;29;37533;-82
2023/05/14 14:35:57;;;;;;;13.35;4.65;;;18.90;99.90;;;;;;4865942;29;38896;-84
2023/05/14 14:38:24;;;;;;;9.90;5.10;;;18.60;99.90;;;;;;4869166;29;38014;-82
2023/05/14 14:40:50;;;;;;;14.23;4.45;;;18.40;99.90;;;;;;4855628;29;38666;-81
2023/05/14 14:43:16;;;;;;;10.68;4.68;;;18.60;99.90;;;;;;4862345;29;37808;-82
2023/05/14 14:45:44;;;;;;;12.52;5.10;;;19.10;99.90;;;;;;4864583;29;39718;-80
2023/05/14 14:48:23;;;;;;;11.95;4.88;;;18.90;99.90;;;;;;4865518;29;38215;-81
2023/05/14 14:50:49;;;;;;;7.80;4.50;;;18.60;99.90;;;;;;4862488;29;37876;-82
2023/05/14 14:53:15;;;;;;;10.27;4.43;;;18.30;99.90;;;;;;4864320;29;35819;-82
2023/05/14 14:55:41;;;;;;;10.90;5.20;;;18.30;99.90;;;;;;4866210;29;37636;-81
2023/05/14 14:58:07;;;;;;;11.07;4.85;;;18.20;99.90;;;;;;4862015;29;38689;-82
2023/05/14 15:00:33;;;;;;;8.00;4.65;;;18.00;99.90;;;;;;4867946;29;38273;-83
2023/05/14 15:03:00;;;;;;;11.50;4.95;;;17.80;99.90;;;;;;4859254;29;36041;-82
2023/05/14 15:05:26;;;;;;;11.18;4.22;;;17.80;99.90;;;;;;4871572;29;37913;-80
2023/05/14 15:07:52;;;;;;;7.57;4.43;;;17.70;99.90;;;;;;4861687;29;38390;-81
2023/05/14 15:10:18;;;;;;;8.05;3.90;;;17.80;99.90;;;;;;4862493;29;38914;-88
2023/05/14 15:12:44;;;;;;;9.55;4.50;;;18.30;99.90;;;;;;4866550;29;37536;-84
2023/05/14 15:15:10;;;;;;;11.35;4.47;;;17.90;99.90;;;;;;4864493;29;38599;-84
2023/05/14 15:17:36;;;;;;;10.23;4.97;;;17.70;99.90;;;;;;4863802;29;37900;-86
2023/05/14 15:20:02;;;;;;;12.75;5.25;;;17.50;99.90;;;;;;4863433;29;37158;-84
2023/05/14 15:22:29;;;;;;;10.15;5.80;;;17.60;99.90;;;;;;4868011;29;37038;-87
2023/05/14 15:24:55;;;;;;;14.48;6.00;;;17.70;99.90;;;;;;4862342;29;37666;-84
2023/05/14 15:27:21;;;;;;;10.13;5.40;;;17.40;99.90;;;;;;4865553;29;37493;-88
2023/05/14 15:29:48;;;;;;;13.50;5.82;;;17.20;99.90;;;;;;4866323;29;36882;-87
2023/05/14 15:32:16;;;;;;;12.82;5.45;;;17.00;99.90;;;;;;4863344;29;37416;-80
2023/05/14 15:34:42;;;;;;;9.93;5.15;;;17.10;99.90;;;;;;4862574;29;39160;-83
2023/05/14 15:37:08;;;;;;;7.82;4.45;;;17.10;99.90;;;;;;4867237;29;37236;-85
2023/05/14 15:39:34;;;;;;;10.02;4.70;;;17.30;99.90;;;;;;4871581;29;38217;-84
2023/05/14 15:42:00;;;;;;;14.90;4.70;;;17.60;99.90;;;;;;4866968;29;36225;-87
2023/05/14 15:44:26;;;;;;;13.82;4.53;;;17.60;99.90;;;;;;4871992;29;47196;-83
2023/05/14 15:46:53;;;;;;;8.00;4.57;;;17.60;99.90;;;;;;4870765;29;38307;-83
2023/05/14 15:49:19;;;;;;;12.30;5.43;;;17.70;99.90;;;;;;4866332;29;39160;-83
2023/05/14 15:51:46;;;;;;;11.18;4.60;;;17.40;99.90;;;;;;4867860;29;36295;-85
2023/05/14 15:54:12;;;;;;;15.07;5.15;;;17.10;99.90;;;;;;4866382;29;38065;-84
2023/05/14 15:56:38;;;;;;;8.55;5.10;;;17.40;99.90;;;;;;4867722;29;38570;-83
2023/05/14 15:59:04;;;;;;;12.55;5.05;;;17.40;99.90;;;;;;4862253;29;38720;-83
2023/05/14 16:01:30;;;;;;;12.48;5.32;;;17.90;99.90;;;;;;4861139;29;39471;-85
2023/05/14 16:03:56;;;;;;;12.20;4.80;;;18.20;99.90;;;;;;4863291;29;37805;-86
2023/05/14 16:06:22;;;;;;;13.50;5.60;;;18.10;99.90;;;;;;4860868;29;37652;-81
2023/05/14 16:08:49;;;;;;;11.80;4.82;;;17.90;99.90;;;;;;4863561;29;37703;-83
2023/05/14 16:11:15;;;;;;;14.40;5.35;;;17.50;99.90;;;;;;4861925;29;37659;-84
2023/05/14 16:13:41;;;;;;;10.98;5.85;;;17.10;99.90;;;;;;4867138;29;38520;-86
2023/05/14 16:16:07;;;;;;;11.55;5.03;;;17.00;99.90;;;;;;4868888;29;37237;-88
2023/05/14 16:18:34;;;;;;;11.48;6.07;;;16.70;99.90;;;;;;4863501;29;38599;-88
2023/05/14 16:21:00;;;;;;;14.35;5.13;;;16.60;99.90;;;;;;4863178;29;37092;-86
2023/05/14 16:23:27;;;;;;;12.85;4.80;;;16.30;99.90;;;;;;4864757;29;40000;-84
2023/05/14 16:25:53;;;;;;;11.23;4.88;;;16.50;99.90;;;;;;4862362;29;37804;-83
2023/05/14 16:28:19;;;;;;;8.82;5.38;;;16.40;99.90;;;;;;4865660;29;37896;-84
2023/05/14 16:30:45;;;;;;;8.93;5.35;;;16.20;99.90;;;;;;4866450;29;37433;-85
2023/05/14 16:33:11;;;;;;;14.20;5.07;;;16.30;99.90;;;;;;4870692;29;38005;-85
2023/05/14 16:35:38;;;;;;;12.68;5.65;;;16.30;99.90;;;;;;4874382;29;38300;-88
2023/05/14 16:38:05;;;;;;;9.10;5.10;;;16.70;99.90;;;;;;4868506;29;37242;-85
2023/05/14 16:40:31;;;;;;;12.57;6.57;;;16.60;99.90;;;;;;4862376;29;37613;-85
2023/05/14 16:42:58;;;;;;;10.30;5.00;;;16.60;99.90;;;;;;4879477;29;36819;-87
2023/05/14 16:45:24;;;;;;;8.38;5.05;;;16.60;99.90;;;;;;4864579;29;38949;-85
2023/05/14 16:47:51;;;;;;;11.98;5.60;;;16.60;99.90;;;;;;4868464;29;37652;-87
2023/05/14 16:50:20;;;;;;;13.70;5.53;;;16.20;99.90;;;;;;4866690;29;36862;-90
2023/05/14 16:52:49;;;;;;;10.35;5.43;;;16.00;99.90;;;;;;4869643;29;38557;-84
2023/05/14 16:55:18;;;;;;;16.17;6.35;;;15.90;99.90;;;;;;4872686;29;39877;-86
2023/05/14 16:57:45;;;;;;;17.67;6.63;;;15.80;99.90;;;;;;4872149;29;37137;-86
2023/05/14 17:00:14;;;;;;;13.15;5.30;;;15.90;99.90;;;;;;4860033;29;36777;-85
2023/05/14 17:02:54;;;;;;;11.02;5.45;;;15.80;99.90;;;;;;4878176;29;38499;-83
2023/05/14 17:08:06;;;;;;;10.43;5.30;;;15.30;99.90;;;;;;5013336;23;20052;-82
2023/05/14 17:14:06;;;;;;;10.50;5.72;;;15.30;99.90;;;;;;4901093;23;20041;-83
2023/05/14 17:36:46;;;;;;;10.38;5.25;;;14.70;99.90;;;;;;5358394;23;20048;-83
2023/05/14 17:39:12;;;;;;;10.65;5.25;;;14.70;99.90;;;;;;5167666;23;48420;-84
2023/05/14 17:41:38;;;;;;;11.23;4.68;;;14.70;99.90;;;;;;5541623;23;35741;-83
2023/05/14 17:47:24;;;;;;;10.43;4.80;;;14.50;99.90;;;;;;5624411;23;20081;-83
2023/05/14 18:20:09;;;;;;;15.50;7.65;;;13.90;99.90;;;;;;5714628;23;20069;31
2023/05/14 18:59:18;;;;;;;19.15;8.63;;;13.50;99.90;;;;;;5532527;23;20041;-84
2023/05/14 19:02:36;;;;;;;17.45;9.55;;;13.40;99.90;;;;;;4880216;29;40417;-82
2023/05/14 19:09:37;;;;;;;16.30;8.80;;;13.20;99.90;;;;;;5096608;23;20037;-83
2023/05/14 19:53:03;;;;;;;39.05;25.08;;;12.50;99.90;;;;;;5012627;23;40266;-81
2023/05/14 20:01:55;;;;;;;19.20;12.23;;;12.40;99.90;;;;;;5747527;23;20064;-82
2023/05/14 23:34:37;;;;;;;38.55;30.08;;;11.40;99.90;;;;;;5545562;23;20165;31
